首页
METAR-TAF:

METAR-TAF

机场 :

西爾維奧·佩蒂羅西國際機場

亞松森, 巴拉圭

纬度: 25-16S, 经度: 057-38W, 海拔: 101米

当前天气观测

该预报发布于33分钟前的10:00 UTC
风速3节,风向
温度 15°C
湿度 88%
气压 1011 hPa
能见度10公里或以上
多云层高于2000英尺
少量云层高于4000英尺, 积雨云.
多云层高于7000英尺
雷暴

METAR: SGAS 151000Z 17003KT 9999 TS BKN020 FEW040CB BKN070 15/13 Q1011

时间: 06:33 (10:33 UTC)

预报

该预报发布于4小时和8分钟前的06:25 UTC
预报有效从15日的 06点(UTC)到 16日的 06点(UTC)
风速13节,风向西南
能見度: 5000
阴天层高于1500英尺
少量云层高于4000英尺, 积雨云.
雷暴, 雨, 冰雹
短暂存在
从 15日的 07点(UTC)到 15日的 10点(UTC)
能見度: 8000
阴天层高于2000英尺
少量云层高于4000英尺, 积雨云.
雷暴, 雨
成为
从 15日的 11点(UTC)到 15日的 13点(UTC)
风速8节,风向
能見度: 8000
阴天层高于1500英尺
少量云层高于4000英尺, 积雨云.
小雨
成为
从 15日的 14点(UTC)到 15日的 16点(UTC)
风速8节,风向
能见度10公里或以上
多云层高于2700英尺

TAF: SGAS 150625Z 1506/1606 22013KT 5000 TSRAGR OVC015 FEW040CB TX23/1519Z TN14/1509Z TEMPO 1507/1510 8000 TSRA OVC020 FEW040CB BECMG 1511/1513 18008KT 8000 -RA OVC015 FEW040CB BECMG 1514/1516 18008KT 9999 BKN027

超过4000个机场的气象观测和天气预报(METAR&TAF报告)。

可查询的气象台以黄色和红色小点在地图上表示。

将鼠标移到小点上方,可查看气象台名称。

然后点击查看天气观测和预报。

如需切换地图:点击带黑十字的绿色按钮放大地图;点击带横线的绿色按钮缩小地图;或者点击绿色箭头查看邻近地区的地图。


METAR-TAF: